createdAt,value
2022-12-13T00:00:38.537Z,9.57
2022-12-13T00:01:41.568Z,9.02
2022-12-13T00:02:44.778Z,8.15
2022-12-13T00:03:46.907Z,7.90
2022-12-13T00:04:51.235Z,8.38
2022-12-13T00:05:54.689Z,8.07
2022-12-13T00:06:57.624Z,7.72
2022-12-13T00:08:00.391Z,8.43
2022-12-13T00:09:04.029Z,8.75
2022-12-13T00:10:07.082Z,8.45
2022-12-13T00:11:13.180Z,8.55
2022-12-13T00:12:15.095Z,7.30
2022-12-13T00:13:17.983Z,7.78
2022-12-13T00:14:21.103Z,6.97
2022-12-13T00:15:24.024Z,8.38
2022-12-13T00:16:27.141Z,9.15
2022-12-13T00:17:32.263Z,8.25
2022-12-13T00:18:34.284Z,7.50
2022-12-13T00:19:37.318Z,8.80
2022-12-13T00:20:41.441Z,7.40
2022-12-13T00:21:44.515Z,8.15
2022-12-13T00:22:46.718Z,8.60
2022-12-13T00:23:49.973Z,7.20
2022-12-13T00:24:55.204Z,7.50
2022-12-13T00:26:03.682Z,8.10
2022-12-13T00:27:07.061Z,8.50
2022-12-13T00:28:09.007Z,8.30
2022-12-13T00:29:12.602Z,8.85
2022-12-13T00:30:14.941Z,8.25
2022-12-13T00:32:41.464Z,7.88
2022-12-13T00:33:43.568Z,7.97
2022-12-13T00:34:46.525Z,9.57
2022-12-13T00:35:49.838Z,10.02
2022-12-13T00:36:54.843Z,8.80
2022-12-13T00:37:56.824Z,8.15
2022-12-13T00:39:02.495Z,8.82
2022-12-13T00:40:06.565Z,8.95
2022-12-13T00:41:13.668Z,8.82
2022-12-13T00:42:16.970Z,8.60
2022-12-13T00:43:18.918Z,8.35
2022-12-13T00:44:21.881Z,9.13
2022-12-13T00:45:23.881Z,9.45
2022-12-13T00:46:27.950Z,8.25
2022-12-13T00:47:29.997Z,8.43
2022-12-13T00:48:32.942Z,9.38
2022-12-13T00:49:36.324Z,9.60
2022-12-13T00:50:38.486Z,9.13
2022-12-13T00:51:42.812Z,8.45
2022-12-13T00:52:44.821Z,8.60
2022-12-13T00:53:48.397Z,8.65
2022-12-13T00:54:50.336Z,8.73
2022-12-13T00:55:53.229Z,9.25
2022-12-13T00:56:56.262Z,9.15
2022-12-13T00:57:58.386Z,8.95
2022-12-13T00:59:01.465Z,8.77
2022-12-13T01:00:05.952Z,8.60
2022-12-13T01:01:09.333Z,8.82
2022-12-13T01:02:12.269Z,7.85
2022-12-13T01:03:20.726Z,7.53
2022-12-13T01:04:23.804Z,8.88
2022-12-13T01:06:02.257Z,8.52
2022-12-13T01:06:51.481Z,7.75
2022-12-13T01:07:53.570Z,8.68
2022-12-13T01:08:56.643Z,9.15
2022-12-13T01:09:59.801Z,9.90
2022-12-13T01:11:02.867Z,8.35
2022-12-13T01:12:07.559Z,9.32
2022-12-13T01:13:09.500Z,9.50
2022-12-13T01:14:12.496Z,8.38
2022-12-13T01:15:14.759Z,9.70
2022-12-13T01:16:18.636Z,8.18
2022-12-13T01:17:20.988Z,9.40
2022-12-13T01:18:24.172Z,8.13
2022-12-13T01:19:27.890Z,8.68
2022-12-13T01:20:30.800Z,8.25
2022-12-13T01:21:32.964Z,8.02
2022-12-13T01:22:37.260Z,8.95
2022-12-13T01:23:39.861Z,9.95
2022-12-13T01:24:42.791Z,9.57
2022-12-13T01:25:44.696Z,9.85
2022-12-13T01:26:47.908Z,9.20
2022-12-13T01:27:49.837Z,7.75
2022-12-13T01:28:52.944Z,8.55
2022-12-13T01:29:54.845Z,8.05
2022-12-13T01:30:58.675Z,8.75
2022-12-13T01:32:00.628Z,7.85
2022-12-13T01:33:03.521Z,8.23
2022-12-13T01:34:18.861Z,8.02
2022-12-13T01:35:20.801Z,9.15
2022-12-13T01:36:27.003Z,9.50
2022-12-13T01:37:30.053Z,9.02
2022-12-13T01:38:37.990Z,9.57
2022-12-13T01:39:40.361Z,9.65
2022-12-13T01:40:45.244Z,8.43
2022-12-13T01:41:50.445Z,10.30
2022-12-13T01:42:52.436Z,8.73
2022-12-13T01:44:00.871Z,9.77
2022-12-13T01:45:06.671Z,9.00
2022-12-13T01:46:10.254Z,8.88
2022-12-13T01:47:13.976Z,8.75
2022-12-13T01:48:20.514Z,9.15
2022-12-13T01:49:22.592Z,9.55
2022-12-13T01:50:28.589Z,8.40
2022-12-13T01:51:35.440Z,8.02
2022-12-13T01:52:39.457Z,9.40
2022-12-13T01:53:46.111Z,10.13
2022-12-13T01:54:51.496Z,8.65
2022-12-13T01:55:57.706Z,9.15
2022-12-13T01:57:00.533Z,9.23
2022-12-13T01:58:04.920Z,9.20
2022-12-13T01:59:08.775Z,8.57
2022-12-13T02:00:12.948Z,7.95
2022-12-13T02:01:15.935Z,8.40
2022-12-13T02:02:17.970Z,8.05
2022-12-13T02:03:23.137Z,9.40
2022-12-13T02:04:31.565Z,9.45
2022-12-13T02:05:38.128Z,8.40
2022-12-13T02:06:43.988Z,8.50
2022-12-13T02:07:48.835Z,8.43
2022-12-13T02:08:52.139Z,8.63
2022-12-13T02:09:58.690Z,8.25
2022-12-13T02:11:02.580Z,8.00
2022-12-13T02:12:05.122Z,9.27
2022-12-13T02:13:08.284Z,9.23
2022-12-13T02:14:11.344Z,7.75
2022-12-13T02:15:16.498Z,9.57
2022-12-13T02:16:34.234Z,8.25
2022-12-13T02:17:53.079Z,8.80
2022-12-13T02:19:15.594Z,7.82
2022-12-13T02:20:49.570Z,7.78
2022-12-13T02:22:05.082Z,7.65
2022-12-13T02:23:39.147Z,8.15
2022-12-13T02:25:05.717Z,8.15
2022-12-13T02:26:29.737Z,7.95
2022-12-13T02:27:46.805Z,7.95
2022-12-13T02:29:06.134Z,9.00
2022-12-13T02:30:27.521Z,7.70
2022-12-13T02:31:32.900Z,8.15
2022-12-13T02:32:42.395Z,8.75
2022-12-13T02:33:52.345Z,9.05
2022-12-13T02:34:57.881Z,7.28
2022-12-13T02:36:10.751Z,7.95
2022-12-13T02:37:19.289Z,8.75
2022-12-13T02:38:28.455Z,8.15
2022-12-13T02:39:34.386Z,8.05
2022-12-13T02:40:41.473Z,8.05
2022-12-13T02:41:48.592Z,8.93
2022-12-13T02:42:58.991Z,7.40
2022-12-13T02:44:13.014Z,7.85
2022-12-13T02:45:32.956Z,9.23
2022-12-13T02:46:38.780Z,8.30
2022-12-13T02:47:44.311Z,7.90
2022-12-13T02:48:49.240Z,8.75
2022-12-13T02:49:54.311Z,7.72
2022-12-13T02:50:59.299Z,7.80
2022-12-13T02:52:02.329Z,8.07
2022-12-13T02:53:07.161Z,7.57
2022-12-13T02:54:09.545Z,8.68
2022-12-13T02:55:16.278Z,8.73
2022-12-13T02:56:19.368Z,8.07
2022-12-13T02:57:30.059Z,6.93
2022-12-13T02:58:36.770Z,8.30
2022-12-13T02:59:40.413Z,7.35
2022-12-13T03:00:54.520Z,7.93
2022-12-13T03:02:10.432Z,8.15
2022-12-13T03:03:23.943Z,7.53
2022-12-13T03:05:02.212Z,7.95
2022-12-13T03:06:34.212Z,7.10
2022-12-13T03:07:44.414Z,7.57
2022-12-13T03:08:57.891Z,7.57
2022-12-13T03:10:06.752Z,7.30
2022-12-13T03:11:12.550Z,8.27
2022-12-13T03:12:42.613Z,7.90
2022-12-13T03:13:50.658Z,8.65
2022-12-13T03:14:59.106Z,7.65
2022-12-13T03:16:12.215Z,7.65
2022-12-13T03:17:16.923Z,8.27
2022-12-13T03:18:21.409Z,8.45
2022-12-13T03:19:23.504Z,8.30
2022-12-13T03:20:29.612Z,8.40
2022-12-13T03:21:45.542Z,7.65
2022-12-13T03:22:49.542Z,7.72
2022-12-13T03:23:52.806Z,7.35
2022-12-13T03:24:54.873Z,7.60
2022-12-13T03:26:02.594Z,8.52
2022-12-13T03:27:04.912Z,8.07
2022-12-13T03:28:07.904Z,8.25
2022-12-13T03:29:09.973Z,7.65
2022-12-13T03:30:14.309Z,7.50
2022-12-13T03:31:17.812Z,9.45
2022-12-13T03:32:20.805Z,8.52
2022-12-13T03:33:22.839Z,8.05
2022-12-13T03:34:25.872Z,8.60
2022-12-13T03:35:47.540Z,8.23
2022-12-13T03:36:49.707Z,8.38
2022-12-13T03:37:52.856Z,8.02
2022-12-13T03:38:56.097Z,8.77
2022-12-13T03:39:59.177Z,7.18
2022-12-13T03:41:04.097Z,8.50
2022-12-13T03:42:06.266Z,9.07
2022-12-13T03:43:09.260Z,9.27
2022-12-13T03:44:12.328Z,8.27
2022-12-13T03:45:14.610Z,9.10
2022-12-13T03:46:19.065Z,10.00
2022-12-13T03:47:21.011Z,8.70
2022-12-13T03:48:24.332Z,9.77
2022-12-13T03:49:26.296Z,8.77
2022-12-13T03:50:38.192Z,8.27
2022-12-13T03:51:41.767Z,8.88
2022-12-13T03:52:44.365Z,8.98
2022-12-13T03:53:47.342Z,9.50
2022-12-13T03:54:50.289Z,8.32
2022-12-13T03:55:52.236Z,10.18
2022-12-13T03:56:55.221Z,11.02
2022-12-13T03:57:57.199Z,8.80
2022-12-13T03:59:00.115Z,9.10
2022-12-13T04:00:02.216Z,9.23
2022-12-13T04:01:06.388Z,10.20
2022-12-13T04:02:10.741Z,9.23
2022-12-13T04:03:12.783Z,10.45
2022-12-13T04:04:15.840Z,10.50
2022-12-13T04:05:18.190Z,9.95
2022-12-13T04:06:21.963Z,10.18
2022-12-13T04:07:25.383Z,10.07
2022-12-13T04:08:38.893Z,11.65
2022-12-13T04:09:40.856Z,10.23
2022-12-13T04:10:43.861Z,10.30
2022-12-13T04:12:04.435Z,10.85
2022-12-13T04:13:24.979Z,9.45
2022-12-13T04:14:26.947Z,9.40
2022-12-13T04:15:29.860Z,10.45
2022-12-13T04:16:32.789Z,9.43
2022-12-13T04:17:36.162Z,10.15
2022-12-13T04:18:39.064Z,10.18
2022-12-13T04:19:41.085Z,9.45
2022-12-13T04:20:44.408Z,8.85
2022-12-13T04:21:46.375Z,8.60
2022-12-13T04:22:49.259Z,9.30
2022-12-13T04:23:52.196Z,9.50
2022-12-13T04:24:54.205Z,11.30
2022-12-13T04:25:57.215Z,9.48
2022-12-13T04:26:59.454Z,10.50
2022-12-13T04:28:03.903Z,10.07
2022-12-13T04:29:06.799Z,11.18
2022-12-13T04:30:10.031Z,10.40
2022-12-13T04:31:13.269Z,9.10
2022-12-13T04:32:25.962Z,9.27
2022-12-13T04:33:32.835Z,10.48
2022-12-13T04:34:37.752Z,11.05
2022-12-13T04:35:40.878Z,10.75
2022-12-13T04:36:43.835Z,9.68
2022-12-13T04:37:45.774Z,10.75
2022-12-13T04:38:48.704Z,9.38
2022-12-13T04:39:50.766Z,9.85
2022-12-13T04:40:53.702Z,11.32
2022-12-13T04:41:55.648Z,9.13
2022-12-13T04:42:58.531Z,10.43
2022-12-13T04:44:00.443Z,9.85
2022-12-13T04:45:03.450Z,9.73
2022-12-13T04:46:05.742Z,9.90
2022-12-13T04:47:08.740Z,9.60
2022-12-13T04:48:10.742Z,10.98
2022-12-13T04:49:15.030Z,10.52
2022-12-13T04:50:17.357Z,8.68
2022-12-13T04:51:20.487Z,10.80
2022-12-13T04:52:22.900Z,9.70
2022-12-13T04:53:25.938Z,10.25
2022-12-13T04:54:28.127Z,10.05
2022-12-13T04:55:39.673Z,9.95
2022-12-13T04:56:41.675Z,9.93
2022-12-13T04:57:44.681Z,10.82
2022-12-13T04:58:46.966Z,9.13
2022-12-13T04:59:50.162Z,9.40
2022-12-13T05:00:52.171Z,9.43
2022-12-13T05:01:55.240Z,9.77
2022-12-13T05:02:57.263Z,9.27
2022-12-13T05:04:00.175Z,9.13
2022-12-13T05:05:04.964Z,8.85
2022-12-13T05:06:26.773Z,10.48
2022-12-13T05:07:31.354Z,8.63
2022-12-13T05:08:34.672Z,9.30
2022-12-13T05:09:36.687Z,10.13
2022-12-13T05:10:39.668Z,11.50
2022-12-13T05:11:45.546Z,8.88
2022-12-13T05:12:48.964Z,9.45
2022-12-13T05:13:51.937Z,9.55
2022-12-13T05:14:54.276Z,10.27
2022-12-13T05:15:57.641Z,9.70
2022-12-13T05:17:00.424Z,8.85
2022-12-13T05:18:09.762Z,10.55
2022-12-13T05:19:12.936Z,8.95
2022-12-13T05:20:17.359Z,8.75
2022-12-13T05:21:19.255Z,10.13
2022-12-13T05:22:22.257Z,10.88
2022-12-13T05:23:25.412Z,11.35
2022-12-13T05:24:28.357Z,10.65
2022-12-13T05:25:30.333Z,10.07
2022-12-13T05:26:33.583Z,11.57
2022-12-13T05:27:36.585Z,11.32
2022-12-13T05:28:38.511Z,9.23
2022-12-13T05:29:42.229Z,10.25
2022-12-13T05:30:44.648Z,11.63
2022-12-13T05:31:47.610Z,11.20
2022-12-13T05:32:49.788Z,10.95
2022-12-13T05:33:52.771Z,11.40
2022-12-13T05:34:54.671Z,10.15
2022-12-13T05:36:01.968Z,11.70
2022-12-13T05:37:04.304Z,11.20
2022-12-13T05:38:07.326Z,11.07
2022-12-13T05:39:28.204Z,10.25
2022-12-13T05:40:33.423Z,8.35
2022-12-13T05:41:36.873Z,10.30
2022-12-13T05:42:39.889Z,9.27
2022-12-13T05:43:43.807Z,10.82
2022-12-13T05:44:45.959Z,11.75
2022-12-13T05:45:48.930Z,10.65
2022-12-13T05:46:50.876Z,10.43
2022-12-13T05:47:53.883Z,12.60
2022-12-13T05:48:56.863Z,11.10
2022-12-13T05:49:58.792Z,10.95
2022-12-13T05:51:10.421Z,11.70
2022-12-13T05:52:18.165Z,10.25
2022-12-13T05:53:30.649Z,10.68
2022-12-13T05:54:34.172Z,10.00
2022-12-13T05:55:38.201Z,10.60
2022-12-13T05:56:41.180Z,11.57
2022-12-13T05:57:50.379Z,10.30
2022-12-13T05:58:54.351Z,10.90
2022-12-13T05:59:56.526Z,9.05
2022-12-13T06:01:07.680Z,8.13
2022-12-13T06:02:10.746Z,10.30
2022-12-13T06:03:13.817Z,10.98
2022-12-13T06:04:22.321Z,9.23
2022-12-13T06:05:30.074Z,9.48
2022-12-13T06:06:34.352Z,8.68
2022-12-13T06:07:37.957Z,9.90
2022-12-13T06:08:41.896Z,9.38
2022-12-13T06:09:45.009Z,8.70
2022-12-13T06:10:55.529Z,10.60
2022-12-13T06:12:31.920Z,10.40
2022-12-13T06:13:35.870Z,9.13
2022-12-13T06:14:45.981Z,10.25
2022-12-13T06:15:47.973Z,10.15
2022-12-13T06:16:51.687Z,8.80
2022-12-13T06:17:54.669Z,9.57
2022-12-13T06:19:03.600Z,8.57
2022-12-13T06:20:23.771Z,8.57
2022-12-13T06:21:27.912Z,9.70
2022-12-13T06:22:31.196Z,9.27
2022-12-13T06:23:42.846Z,10.13
2022-12-13T06:24:46.065Z,9.80
2022-12-13T06:25:51.620Z,10.02
2022-12-13T06:26:54.780Z,9.27
2022-12-13T06:27:56.734Z,10.95
2022-12-13T06:28:59.697Z,11.25
2022-12-13T06:30:03.136Z,11.02
2022-12-13T06:31:05.642Z,8.95
2022-12-13T06:32:08.668Z,10.20
2022-12-13T06:33:13.373Z,9.15
2022-12-13T06:34:16.383Z,9.85
2022-12-13T06:35:28.658Z,11.60
2022-12-13T06:36:32.727Z,10.73
2022-12-13T06:37:36.994Z,10.65
2022-12-13T06:38:43.579Z,8.70
2022-12-13T06:39:48.043Z,9.88
2022-12-13T06:40:50.029Z,9.68
2022-12-13T06:41:52.990Z,10.23
2022-12-13T06:42:55.053Z,10.18
2022-12-13T06:43:58.184Z,8.88
2022-12-13T06:45:01.107Z,9.02
2022-12-13T06:46:04.024Z,9.00
2022-12-13T06:47:10.197Z,8.95
2022-12-13T06:48:20.048Z,11.15
2022-12-13T06:49:23.640Z,9.05
2022-12-13T06:50:35.694Z,9.10
2022-12-13T06:51:37.640Z,9.40
2022-12-13T06:52:41.986Z,9.00
2022-12-13T06:53:44.965Z,10.65
2022-12-13T06:54:47.871Z,10.32
2022-12-13T06:55:50.800Z,9.88
2022-12-13T06:56:52.824Z,8.93
2022-12-13T06:57:55.885Z,9.48
2022-12-13T06:59:01.600Z,8.88
2022-12-13T07:00:06.274Z,10.68
2022-12-13T07:01:14.527Z,9.23
2022-12-13T07:02:24.864Z,10.80
2022-12-13T07:03:29.293Z,9.80
2022-12-13T07:04:32.455Z,10.35
2022-12-13T07:05:35.849Z,12.25
2022-12-13T07:06:38.306Z,10.85
2022-12-13T07:07:42.561Z,10.13
2022-12-13T07:08:48.084Z,11.13
2022-12-13T07:09:51.049Z,11.02
2022-12-13T07:10:55.269Z,12.25
2022-12-13T07:11:58.230Z,11.02
2022-12-13T07:13:01.190Z,13.38
2022-12-13T07:14:04.281Z,11.15
2022-12-13T07:15:08.889Z,10.05
2022-12-13T07:16:12.280Z,10.25
2022-12-13T07:17:32.333Z,9.75
2022-12-13T07:18:37.325Z,11.32
2022-12-13T07:19:39.684Z,11.98
2022-12-13T07:20:43.215Z,11.50
2022-12-13T07:21:45.170Z,11.20
2022-12-13T07:22:58.251Z,10.48
2022-12-13T07:24:02.130Z,9.23
2022-12-13T07:25:05.248Z,8.95
2022-12-13T07:26:09.220Z,10.32
2022-12-13T07:27:11.159Z,10.38
2022-12-13T07:28:14.080Z,10.93
2022-12-13T07:29:22.745Z,8.77
2022-12-13T07:30:25.930Z,9.95
2022-12-13T07:31:29.477Z,9.38
2022-12-13T07:32:32.421Z,9.82
2022-12-13T07:33:36.020Z,10.75
2022-12-13T07:34:38.941Z,9.23
2022-12-13T07:35:42.403Z,9.60
2022-12-13T07:36:44.347Z,8.88
2022-12-13T07:37:47.444Z,9.75
2022-12-13T07:38:54.922Z,7.18
2022-12-13T07:40:02.993Z,7.80
2022-12-13T07:41:07.596Z,8.15
2022-12-13T07:42:09.644Z,8.75
2022-12-13T07:43:13.019Z,7.05
2022-12-13T07:44:20.201Z,7.30
2022-12-13T07:45:23.914Z,7.90
2022-12-13T07:46:32.825Z,8.93
2022-12-13T07:47:36.784Z,9.23
2022-12-13T07:48:39.837Z,7.00
2022-12-13T07:49:42.883Z,8.00
2022-12-13T07:50:45.115Z,4.25
2022-12-13T07:51:57.982Z,7.43
2022-12-13T07:53:05.724Z,7.47
2022-12-13T07:54:09.981Z,7.45
2022-12-13T07:55:13.601Z,6.70
2022-12-13T07:56:16.533Z,8.43
2022-12-13T07:57:19.470Z,7.20
2022-12-13T07:58:22.816Z,8.65
2022-12-13T07:59:28.929Z,8.15
2022-12-13T08:00:35.017Z,8.65
2022-12-13T08:01:38.546Z,7.10
2022-12-13T08:02:41.154Z,9.50
2022-12-13T08:03:44.253Z,6.25
2022-12-13T08:04:54.721Z,7.55
2022-12-13T08:06:02.198Z,7.90
2022-12-13T08:07:08.773Z,7.65
2022-12-13T08:08:11.936Z,7.80
2022-12-13T08:09:16.631Z,6.70
2022-12-13T08:10:19.661Z,7.70
2022-12-13T08:11:22.941Z,6.93
2022-12-13T08:12:26.704Z,8.82
2022-12-13T08:13:28.784Z,8.45
2022-12-13T08:14:31.679Z,7.00
2022-12-13T08:15:34.772Z,7.72
2022-12-13T08:16:37.758Z,7.43
2022-12-13T08:17:40.891Z,8.77
2022-12-13T08:18:44.216Z,7.00
2022-12-13T08:19:51.492Z,8.77
2022-12-13T08:20:58.297Z,6.85
2022-12-13T08:22:02.201Z,7.95
2022-12-13T08:23:06.007Z,6.30
2022-12-13T08:24:15.480Z,7.50
2022-12-13T08:25:20.108Z,7.60
2022-12-13T08:26:23.981Z,6.05
2022-12-13T08:27:29.153Z,8.80
2022-12-13T08:28:33.056Z,6.45
2022-12-13T08:29:36.461Z,6.63
2022-12-13T08:30:39.833Z,6.28
2022-12-13T08:31:45.579Z,7.15
2022-12-13T08:32:50.915Z,6.22
2022-12-13T08:33:53.831Z,7.60
2022-12-13T08:34:56.757Z,8.60
2022-12-13T08:35:59.841Z,6.88
2022-12-13T08:37:03.997Z,6.97
2022-12-13T08:38:07.388Z,6.55
2022-12-13T08:39:10.461Z,9.27
2022-12-13T08:40:15.273Z,6.85
2022-12-13T08:41:19.771Z,6.53
2022-12-13T08:42:21.822Z,7.32
2022-12-13T08:43:25.336Z,6.25
2022-12-13T08:44:27.395Z,5.40
2022-12-13T08:45:31.655Z,6.00
2022-12-13T08:46:34.736Z,4.60
2022-12-13T08:47:41.722Z,5.10
2022-12-13T08:48:45.199Z,5.78
2022-12-13T08:49:47.463Z,4.15
2022-12-13T08:50:50.377Z,4.35
2022-12-13T08:51:53.346Z,5.57
2022-12-13T08:52:56.333Z,5.40
2022-12-13T08:54:11.003Z,6.75
2022-12-13T08:55:18.082Z,4.63
2022-12-13T08:56:23.324Z,7.20
2022-12-13T08:57:26.578Z,5.65
2022-12-13T08:58:29.870Z,5.82
2022-12-13T08:59:31.913Z,5.85
2022-12-13T09:00:35.431Z,6.97
2022-12-13T09:01:39.424Z,6.43
2022-12-13T09:02:42.510Z,6.32
2022-12-13T09:03:45.523Z,6.10
2022-12-13T09:04:48.452Z,5.85
2022-12-13T09:05:51.409Z,5.43
2022-12-13T09:06:54.489Z,6.50
2022-12-13T09:07:58.199Z,5.20
2022-12-13T09:09:03.675Z,4.75
2022-12-13T09:10:25.603Z,4.82
2022-12-13T09:11:34.519Z,4.50
2022-12-13T09:12:44.193Z,4.60
2022-12-13T09:13:47.217Z,6.72
2022-12-13T09:14:50.119Z,5.45
2022-12-13T09:15:53.170Z,5.32
2022-12-13T09:17:04.590Z,5.40
2022-12-13T09:18:06.671Z,5.63
2022-12-13T09:19:25.696Z,4.70
2022-12-13T09:20:30.211Z,5.78
2022-12-13T09:21:33.425Z,5.00
2022-12-13T09:22:36.596Z,5.30
2022-12-13T09:23:48.273Z,5.43
2022-12-13T09:24:51.171Z,6.47
2022-12-13T09:25:56.227Z,6.38
2022-12-13T09:27:27.610Z,5.50
2022-12-13T09:28:31.811Z,4.97
2022-12-13T09:29:35.054Z,6.25
2022-12-13T09:30:38.906Z,5.13
2022-12-13T09:31:41.869Z,5.70
2022-12-13T09:32:49.757Z,5.38
2022-12-13T09:33:52.761Z,4.50
2022-12-13T09:34:54.772Z,5.43
2022-12-13T09:35:57.779Z,5.90
2022-12-13T09:37:01.110Z,6.07
2022-12-13T09:38:04.811Z,5.20
2022-12-13T09:39:07.731Z,6.85
2022-12-13T09:40:15.701Z,6.30
2022-12-13T09:41:31.752Z,24.90
2022-12-13T09:42:37.126Z,6.63
2022-12-13T09:43:45.852Z,4.72
2022-12-13T09:45:02.171Z,4.70
2022-12-13T09:46:22.129Z,4.85
2022-12-13T09:47:35.172Z,3.92
2022-12-13T09:48:39.065Z,4.00
2022-12-13T09:49:44.215Z,5.55
2022-12-13T09:51:15.837Z,4.68
2022-12-13T09:52:22.459Z,4.35
2022-12-13T09:53:25.641Z,6.18
2022-12-13T09:54:38.533Z,4.82
2022-12-13T09:55:50.150Z,4.38
2022-12-13T09:56:54.994Z,3.75
2022-12-13T09:58:01.487Z,4.35
2022-12-13T09:59:04.486Z,5.35
2022-12-13T10:00:13.651Z,4.45
2022-12-13T10:01:22.527Z,5.47
2022-12-13T10:02:29.875Z,5.82
2022-12-13T10:03:33.255Z,4.25
2022-12-13T10:04:36.592Z,3.38
2022-12-13T10:05:40.584Z,3.45
2022-12-13T10:06:44.349Z,5.10
2022-12-13T10:07:47.417Z,5.75
2022-12-13T10:08:58.184Z,1.23
2022-12-13T10:10:02.846Z,4.20
2022-12-13T10:11:05.392Z,3.97
2022-12-13T10:13:45.756Z,4.32
2022-12-13T10:14:52.380Z,4.20
2022-12-13T10:16:00.023Z,4.00
2022-12-13T10:17:08.365Z,1.75
2022-12-13T10:18:16.101Z,2.97
2022-12-13T10:19:28.217Z,5.32
2022-12-13T10:20:32.915Z,3.33
2022-12-13T10:21:40.044Z,6.80
2022-12-13T10:22:56.375Z,5.28
2022-12-13T10:24:27.327Z,5.00
2022-12-13T10:25:51.019Z,4.35
2022-12-13T10:26:55.060Z,4.10
2022-12-13T10:27:58.746Z,5.00
2022-12-13T10:29:07.550Z,5.63
2022-12-13T10:30:12.694Z,5.55
2022-12-13T10:31:20.740Z,5.03
2022-12-13T10:32:23.834Z,5.50
2022-12-13T10:33:30.894Z,5.82
2022-12-13T10:34:39.567Z,5.18
2022-12-13T10:35:41.984Z,6.00
2022-12-13T10:36:45.207Z,5.15
2022-12-13T10:37:48.251Z,4.70
2022-12-13T10:38:51.209Z,5.20
2022-12-13T10:39:54.184Z,4.85
2022-12-13T10:40:56.244Z,5.90
2022-12-13T10:42:05.872Z,4.30
2022-12-13T10:43:13.408Z,4.75
2022-12-13T10:44:24.284Z,5.78
2022-12-13T10:45:27.219Z,5.55
2022-12-13T10:46:31.201Z,5.80
2022-12-13T10:47:43.535Z,5.88
2022-12-13T10:48:50.266Z,4.47
2022-12-13T10:49:58.784Z,6.05
2022-12-13T10:51:05.721Z,5.07
2022-12-13T10:52:31.638Z,6.47
2022-12-13T10:53:43.846Z,4.15
2022-12-13T10:54:51.729Z,5.43
2022-12-13T10:55:56.113Z,5.10
2022-12-13T10:57:06.053Z,4.80
2022-12-13T10:58:20.313Z,4.85
2022-12-13T10:59:27.957Z,4.53
2022-12-13T11:00:41.393Z,4.75
2022-12-13T11:01:44.616Z,4.85
2022-12-13T11:02:55.611Z,4.38
2022-12-13T11:04:02.071Z,4.20
2022-12-13T11:05:27.300Z,3.72
2022-12-13T11:06:43.295Z,4.50
2022-12-13T11:07:47.021Z,4.68
2022-12-13T11:08:50.004Z,5.15
2022-12-13T11:09:52.837Z,5.40
2022-12-13T11:11:00.644Z,4.57
2022-12-13T11:12:05.708Z,5.38
2022-12-13T11:13:08.350Z,5.93
2022-12-13T11:14:19.559Z,4.85
2022-12-13T11:15:39.321Z,5.20
2022-12-13T11:16:43.123Z,4.18
2022-12-13T11:17:49.893Z,4.80
2022-12-13T11:18:55.188Z,4.53
2022-12-13T11:20:01.648Z,3.92
2022-12-13T11:21:07.693Z,4.10
2022-12-13T11:22:19.978Z,4.10
2022-12-13T11:23:29.679Z,6.03
2022-12-13T11:24:36.951Z,4.55
2022-12-13T11:25:42.329Z,4.70
2022-12-13T11:26:53.778Z,4.70
2022-12-13T11:28:26.900Z,4.60
2022-12-13T11:29:47.337Z,4.10
2022-12-13T11:31:02.537Z,3.72
2022-12-13T11:33:53.864Z,4.05
2022-12-13T11:35:06.087Z,3.67
2022-12-13T11:36:17.779Z,4.57
2022-12-13T11:37:27.817Z,4.28
2022-12-13T11:38:35.440Z,4.30
2022-12-13T11:39:41.313Z,3.63
2022-12-13T11:40:47.181Z,3.22
2022-12-13T11:41:57.123Z,3.75
2022-12-13T11:43:06.433Z,3.60
2022-12-13T11:44:16.020Z,4.05
2022-12-13T11:45:25.672Z,4.13
2022-12-13T11:46:36.740Z,0.95
2022-12-13T11:47:47.437Z,0.40
2022-12-13T11:48:56.881Z,1.13
2022-12-13T11:50:00.399Z,1.83
2022-12-13T11:51:05.634Z,1.88
2022-12-13T11:52:18.665Z,0.30
2022-12-13T11:53:31.296Z,0.60
2022-12-13T11:54:43.763Z,0.95
2022-12-13T11:55:52.333Z,1.50
2022-12-13T11:57:00.329Z,1.27
2022-12-13T11:58:08.624Z,1.73
2022-12-13T11:59:27.175Z,0.77
2022-12-13T12:00:37.030Z,3.42
2022-12-13T12:01:47.249Z,3.65
2022-12-13T12:02:54.872Z,3.42
2022-12-13T12:04:06.669Z,3.30
2022-12-13T12:05:23.602Z,4.63
2022-12-13T12:06:30.623Z,2.70
2022-12-13T12:07:58.550Z,3.30
2022-12-13T12:09:05.555Z,3.55
2022-12-13T12:10:22.058Z,5.28
2022-12-13T12:11:32.636Z,4.18
2022-12-13T12:12:37.116Z,3.30
2022-12-13T12:13:50.774Z,4.68
2022-12-13T12:15:05.145Z,0.55
2022-12-13T12:16:26.232Z,1.15
2022-12-13T12:17:34.956Z,0.52
2022-12-13T12:18:40.827Z,0.82
2022-12-13T12:19:45.417Z,0.95
2022-12-13T12:21:00.401Z,3.00
2022-12-13T12:22:14.912Z,3.90
2022-12-13T12:23:29.252Z,3.55
2022-12-13T12:24:41.283Z,4.10
2022-12-13T12:25:50.766Z,3.45
2022-12-13T12:27:01.369Z,3.85
2022-12-13T12:28:13.661Z,3.78
2022-12-13T12:29:38.523Z,3.15
2022-12-13T12:30:51.778Z,3.40
2022-12-13T12:32:05.981Z,2.85
2022-12-13T12:33:22.594Z,3.58
2022-12-13T12:34:36.342Z,3.17
2022-12-13T12:36:04.418Z,2.55
2022-12-13T12:37:17.310Z,3.22
2022-12-13T12:38:55.890Z,2.90
2022-12-13T12:40:52.158Z,2.72
2022-12-13T12:42:13.624Z,3.63
2022-12-13T12:43:23.609Z,3.05
2022-12-13T12:44:34.813Z,3.10
2022-12-13T12:45:57.712Z,3.25
2022-12-13T12:47:38.198Z,4.00
2022-12-13T12:49:11.088Z,3.63
2022-12-13T12:50:34.024Z,2.80
2022-12-13T12:51:48.274Z,3.47
2022-12-13T12:53:01.625Z,3.10
2022-12-13T12:54:19.191Z,3.42
2022-12-13T12:55:36.306Z,3.15
2022-12-13T12:56:46.841Z,3.60
2022-12-13T12:58:01.476Z,2.78
2022-12-13T12:59:13.481Z,3.65
2022-12-13T13:00:21.744Z,3.88
2022-12-13T13:01:43.620Z,3.95
2022-12-13T13:02:52.990Z,3.70
2022-12-13T13:04:02.726Z,3.40
2022-12-13T13:05:22.988Z,2.97
2022-12-13T13:06:30.971Z,4.18
2022-12-13T13:07:40.227Z,3.63
2022-12-13T13:08:53.388Z,2.92
2022-12-13T13:09:59.415Z,2.63
2022-12-13T13:11:24.438Z,3.70
2022-12-13T13:12:30.810Z,4.20
2022-12-13T13:13:36.524Z,3.80
2022-12-13T13:14:49.599Z,3.20
2022-12-13T13:16:00.984Z,3.75
2022-12-13T13:17:40.004Z,3.05
2022-12-13T13:18:51.452Z,3.10
2022-12-13T13:20:12.639Z,3.42
2022-12-13T13:21:50.471Z,3.40
2022-12-13T13:23:10.406Z,3.47
2022-12-13T13:24:26.975Z,2.72
2022-12-13T13:25:32.508Z,3.50
2022-12-13T13:26:37.720Z,4.20
2022-12-13T13:27:43.705Z,4.50
2022-12-13T13:28:46.694Z,4.35
2022-12-13T13:29:49.621Z,4.55
2022-12-13T13:31:04.869Z,4.68
2022-12-13T13:32:28.493Z,4.05
2022-12-13T13:33:47.258Z,3.40
2022-12-13T13:34:50.752Z,4.25
2022-12-13T13:35:55.161Z,4.32
2022-12-13T13:36:57.896Z,3.83
2022-12-13T13:38:05.118Z,3.75
2022-12-13T13:39:16.949Z,4.35
2022-12-13T13:40:31.989Z,4.43
2022-12-13T13:41:50.363Z,4.07
2022-12-13T13:43:16.066Z,3.90
2022-12-13T13:45:00.929Z,3.30
2022-12-13T13:46:12.053Z,4.03
2022-12-13T13:47:16.272Z,3.00
2022-12-13T13:48:40.793Z,4.90
2022-12-13T13:50:01.554Z,3.25
2022-12-13T13:52:08.740Z,4.05
2022-12-13T13:53:31.261Z,3.63
2022-12-13T13:55:02.436Z,3.88
2022-12-13T13:56:24.218Z,3.47
2022-12-13T13:58:11.186Z,3.67
2022-12-13T13:59:50.052Z,4.00
2022-12-13T14:01:26.850Z,2.75
2022-12-13T14:02:59.557Z,3.45
2022-12-13T14:04:39.583Z,3.38
2022-12-13T14:06:21.771Z,3.50
2022-12-13T14:08:03.672Z,3.28
2022-12-13T14:09:25.226Z,2.72
2022-12-13T14:10:43.320Z,3.30
2022-12-13T14:12:35.361Z,3.13
2022-12-13T14:14:22.083Z,3.47
2022-12-13T14:16:07.397Z,2.75
2022-12-13T14:18:03.778Z,3.08
2022-12-13T14:19:37.744Z,3.42
2022-12-13T14:21:05.453Z,3.90
2022-12-13T14:22:25.885Z,3.55
2022-12-13T14:23:50.762Z,4.00
2022-12-13T14:25:05.161Z,4.47
2022-12-13T14:26:23.299Z,4.40
2022-12-13T14:27:41.059Z,3.45
2022-12-13T14:28:49.592Z,3.85
2022-12-13T14:29:57.940Z,4.03
2022-12-13T14:31:01.956Z,4.47
2022-12-13T14:32:11.075Z,3.72
2022-12-13T14:33:30.517Z,3.53
2022-12-13T14:34:34.598Z,4.00
2022-12-13T14:35:37.496Z,3.25
2022-12-13T14:36:42.065Z,3.72
2022-12-13T14:37:57.596Z,2.95
2022-12-13T14:39:03.213Z,3.70
2022-12-13T14:40:28.732Z,2.95
2022-12-13T14:41:32.022Z,4.07
2022-12-13T14:42:35.842Z,3.90
2022-12-13T14:43:38.940Z,3.13
2022-12-13T14:44:41.836Z,3.38
2022-12-13T14:45:44.976Z,4.40
2022-12-13T14:46:53.003Z,4.30
2022-12-13T14:47:57.379Z,4.65
2022-12-13T14:49:01.684Z,4.10
2022-12-13T14:50:08.761Z,3.35
2022-12-13T14:51:32.659Z,4.20
2022-12-13T14:52:39.973Z,3.70
2022-12-13T14:53:43.163Z,4.57
2022-12-13T14:54:58.256Z,4.43
2022-12-13T14:56:06.382Z,3.95
2022-12-13T14:57:17.399Z,5.13
2022-12-13T14:58:23.156Z,4.95
2022-12-13T14:59:26.835Z,7.43
2022-12-13T15:00:32.367Z,5.22
2022-12-13T15:01:36.991Z,10.20
2022-12-13T15:02:51.750Z,11.60
2022-12-13T15:03:54.831Z,9.85
2022-12-13T15:04:58.849Z,7.32